Terminal Aerodrome Forecast
Issued by NWS Atlanta, GA

Home | Current Version | Previous Version | Text Only | Print | Product List | Glossary On
Versions: 1 2 3 4 5 6 7 8 9 10 11 12 13 14 15 16 17
323
FTUS42 KFFC 161735
TAFMCN
TAF
KMCN 161735Z 1618/1718 26005KT P6SM SKC
     FM162000 28006KT P6SM VCSH SCT050 SCT200
     FM170100 26006KT P6SM SCT050 BKN150
     FM170500 24004KT P6SM SCT025 SCT080=

USA.gov is the U.S. government's official web portal to all federal, state and local government web resources and services.